Time;durP1;ratioP1;P1;durP2;ratioP2;P2;SDS_P1;SDS_P2;PMS_P1;PMS_P2;Temp;Humidity;BMP_temperature;BMP_pressure;BME280_temperature;BME280_humidity;BME280_pressure;Samples;Min_cycle;Max_cycle;Signal;HPM_P1;HPM_P2
2022/10/21 00:01:53;;;;;;;31.30;14.25;;;;;;;;;;4921526;29;20107;-72
2022/10/21 00:04:19;;;;;;;30.77;13.07;;;;;;;;;;4921693;29;20047;-72
2022/10/21 00:06:45;;;;;;;28.83;12.68;;;;;;;;;;4921461;29;20040;-72
2022/10/21 00:09:12;;;;;;;24.92;11.75;;;;;;;;;;4921368;29;20122;-72
2022/10/21 00:11:38;;;;;;;30.40;12.00;;;;;;;;;;4921054;29;20429;-72
2022/10/21 00:14:04;;;;;;;26.92;12.57;;;;;;;;;;4921339;29;20051;-72
2022/10/21 00:16:30;;;;;;;32.35;12.98;;;;;;;;;;4921244;29;20047;-72
2022/10/21 00:18:56;;;;;;;32.13;12.98;;;;;;;;;;4920923;29;20044;-72
2022/10/21 00:21:22;;;;;;;35.65;13.27;;;;;;;;;;4921209;29;20040;-72
2022/10/21 00:23:49;;;;;;;39.50;12.38;;;;;;;;;;4921143;29;20047;-72
2022/10/21 00:26:15;;;;;;;37.33;13.60;;;;;;;;;;4921091;29;20044;-72
2022/10/21 00:28:41;;;;;;;35.50;13.30;;;;;;;;;;4921310;29;20048;-72
2022/10/21 00:31:08;;;;;;;28.95;13.75;;;;;;;;;;4920930;29;20055;-72
2022/10/21 00:33:34;;;;;;;41.38;14.70;;;;;;;;;;4920748;29;20052;-72
2022/10/21 00:36:01;;;;;;;32.33;14.38;;;;;;;;;;4920952;29;20036;-72
2022/10/21 00:38:28;;;;;;;36.00;14.68;;;;;;;;;;4920350;29;20051;-72
2022/10/21 00:40:54;;;;;;;35.42;12.93;;;;;;;;;;4920666;29;20064;-72
2022/10/21 00:43:20;;;;;;;37.03;12.90;;;;;;;;;;4920537;29;20036;-72
2022/10/21 00:45:49;;;;;;;41.88;13.88;;;;;;;;;;4920511;29;20051;-72
2022/10/21 00:48:30;;;;;;;27.00;12.13;;;;;;;;;;4919932;29;20040;-72
2022/10/21 00:51:07;;;;;;;34.13;12.52;;;;;;;;;;4920948;29;20087;-72
2022/10/21 00:53:34;;;;;;;27.70;11.80;;;;;;;;;;4920050;29;20083;-72
2022/10/21 00:56:06;;;;;;;37.03;11.57;;;;;;;;;;4920140;29;20574;-72
2022/10/21 00:58:33;;;;;;;27.33;11.02;;;;;;;;;;4920053;29;20048;-72
2022/10/21 01:01:01;;;;;;;25.13;11.23;;;;;;;;;;4920238;29;20051;-72
2022/10/21 01:03:28;;;;;;;35.17;12.65;;;;;;;;;;4920384;29;20205;-72
2022/10/21 01:05:57;;;;;;;25.27;12.25;;;;;;;;;;4920151;29;20052;-72
2022/10/21 01:08:23;;;;;;;31.20;12.00;;;;;;;;;;4920481;29;20051;-72
2022/10/21 01:10:49;;;;;;;39.22;14.10;;;;;;;;;;4920078;29;20079;-72
2022/10/21 01:13:36;;;;;;;33.47;12.77;;;;;;;;;;4919964;29;20080;-72
2022/10/21 01:16:02;;;;;;;33.63;13.82;;;;;;;;;;4913004;29;20043;-72
2022/10/21 01:18:43;;;;;;;31.33;12.10;;;;;;;;;;4919669;29;20044;-72
2022/10/21 01:21:11;;;;;;;26.98;11.98;;;;;;;;;;4920198;29;20048;-72
2022/10/21 01:23:44;;;;;;;34.75;12.93;;;;;;;;;;4920130;29;20055;-72
2022/10/21 01:26:13;;;;;;;29.83;11.02;;;;;;;;;;4919603;29;20130;-72
2022/10/21 01:28:39;;;;;;;29.42;11.32;;;;;;;;;;4919781;29;20040;-72
2022/10/21 01:31:11;;;;;;;24.80;11.02;;;;;;;;;;4919615;29;20040;-72
2022/10/21 01:33:42;;;;;;;31.38;11.02;;;;;;;;;;4919459;29;20088;-72
2022/10/21 01:36:17;;;;;;;34.45;11.43;;;;;;;;;;4919850;29;20515;-72
2022/10/21 01:38:49;;;;;;;28.88;10.82;;;;;;;;;;4919558;29;20127;-72
2022/10/21 01:41:29;;;;;;;25.38;10.63;;;;;;;;;;4919197;29;20060;-72
2022/10/21 01:43:57;;;;;;;36.40;11.80;;;;;;;;;;4918862;29;20040;-72
2022/10/21 01:46:33;;;;;;;28.30;11.45;;;;;;;;;;4919123;29;20048;-72
2022/10/21 01:49:02;;;;;;;26.55;11.63;;;;;;;;;;4919729;29;20043;-72
2022/10/21 01:51:28;;;;;;;28.13;10.80;;;;;;;;;;4918896;29;20048;-72
2022/10/21 01:53:58;;;;;;;29.25;11.85;;;;;;;;;;4918925;29;20515;-72
2022/10/21 01:56:25;;;;;;;30.40;12.70;;;;;;;;;;4919191;29;20047;-72
2022/10/21 01:58:52;;;;;;;30.85;12.10;;;;;;;;;;4919486;29;20048;-72
2022/10/21 02:01:19;;;;;;;42.53;14.35;;;;;;;;;;4919112;29;20092;-72
2022/10/21 02:03:47;;;;;;;41.30;12.52;;;;;;;;;;4918769;29;20396;-72
2022/10/21 02:06:14;;;;;;;29.50;12.40;;;;;;;;;;4918753;29;20079;-72
2022/10/21 02:08:40;;;;;;;28.73;12.23;;;;;;;;;;4919467;29;20036;-72
2022/10/21 02:11:08;;;;;;;34.95;12.93;;;;;;;;;;4918723;29;20054;-72
2022/10/21 02:13:58;;;;;;;28.92;12.30;;;;;;;;;;4918912;29;20574;-72
2022/10/21 02:16:26;;;;;;;41.03;14.00;;;;;;;;;;4913817;29;20408;-72
2022/10/21 02:18:52;;;;;;;31.55;12.88;;;;;;;;;;4919047;29;20123;-72
2022/10/21 02:21:21;;;;;;;29.20;12.10;;;;;;;;;;4918529;29;20059;-72
2022/10/21 02:24:06;;;;;;;35.45;13.13;;;;;;;;;;4918431;29;20170;-72
2022/10/21 02:26:32;;;;;;;36.30;13.15;;;;;;;;;;4918737;29;20491;-72
2022/10/21 02:28:59;;;;;;;33.38;13.35;;;;;;;;;;4919102;29;20050;-72
2022/10/21 02:31:47;;;;;;;27.85;13.45;;;;;;;;;;4919133;29;20044;-72
2022/10/21 02:34:34;;;;;;;35.85;12.73;;;;;;;;;;4918897;29;20507;-72
2022/10/21 02:37:00;;;;;;;39.97;14.77;;;;;;;;;;4918605;29;20052;-72
2022/10/21 02:39:38;;;;;;;30.60;14.63;;;;;;;;;;4918569;29;20074;-72
2022/10/21 02:42:07;;;;;;;34.25;13.85;;;;;;;;;;4918818;29;20055;-72
2022/10/21 02:44:33;;;;;;;35.15;14.15;;;;;;;;;;4918591;29;20099;-72
2022/10/21 02:46:59;;;;;;;31.85;16.05;;;;;;;;;;4918695;29;20044;-72
2022/10/21 02:49:25;;;;;;;38.92;15.73;;;;;;;;;;4918065;29;20456;-72
2022/10/21 02:51:51;;;;;;;37.72;15.35;;;;;;;;;;4918118;29;20052;-72
2022/10/21 02:54:17;;;;;;;36.80;15.38;;;;;;;;;;4917919;29;20044;-72
2022/10/21 02:56:44;;;;;;;33.45;15.88;;;;;;;;;;4918131;29;20048;-72
2022/10/21 02:59:10;;;;;;;34.13;15.68;;;;;;;;;;4918086;29;20048;-72
2022/10/21 03:01:36;;;;;;;40.53;16.65;;;;;;;;;;4918227;29;20051;-72
2022/10/21 03:04:02;;;;;;;38.00;16.02;;;;;;;;;;4918219;29;20036;-72
2022/10/21 03:06:28;;;;;;;40.72;17.10;;;;;;;;;;4918260;29;20518;-72
2022/10/21 03:08:54;;;;;;;34.17;15.82;;;;;;;;;;4918189;29;20492;-72
2022/10/21 03:11:20;;;;;;;44.30;16.70;;;;;;;;;;4921220;29;20044;-71
2022/10/21 03:13:46;;;;;;;41.30;15.43;;;;;;;;;;4922267;29;20059;-72
2022/10/21 03:16:12;;;;;;;48.83;18.27;;;;;;;;;;4921816;29;20495;-72
2022/10/21 03:18:38;;;;;;;36.08;14.90;;;;;;;;;;4922331;29;20055;-72
2022/10/21 03:21:05;;;;;;;43.03;16.80;;;;;;;;;;4922013;29;20075;-72
2022/10/21 03:23:31;;;;;;;45.90;16.50;;;;;;;;;;4922359;29;20043;-72
2022/10/21 03:25:57;;;;;;;45.58;17.15;;;;;;;;;;4921757;29;20102;-72
2022/10/21 03:28:23;;;;;;;43.88;16.23;;;;;;;;;;4922134;29;20048;-72
2022/10/21 03:30:49;;;;;;;43.90;17.23;;;;;;;;;;4921451;29;20036;-72
2022/10/21 03:33:15;;;;;;;43.08;17.90;;;;;;;;;;4921748;29;20055;-72
2022/10/21 03:35:41;;;;;;;50.10;18.17;;;;;;;;;;4921462;29;20040;-72
2022/10/21 03:38:07;;;;;;;44.35;17.92;;;;;;;;;;4921753;29;20120;-72
2022/10/21 03:40:33;;;;;;;45.72;18.95;;;;;;;;;;4921104;29;20602;-72
2022/10/21 03:43:00;;;;;;;41.45;18.70;;;;;;;;;;4921361;29;20044;-72
2022/10/21 03:45:26;;;;;;;46.70;17.23;;;;;;;;;;4936164;29;20394;-72
2022/10/21 03:47:52;;;;;;;35.28;16.77;;;;;;;;;;4921477;29;20040;-72
2022/10/21 03:50:18;;;;;;;38.67;16.75;;;;;;;;;;4921158;29;20134;-72
2022/10/21 03:52:45;;;;;;;40.80;16.02;;;;;;;;;;4921538;29;20146;-72
2022/10/21 03:55:11;;;;;;;37.85;16.52;;;;;;;;;;4921192;29;20100;-71
2022/10/21 03:57:38;;;;;;;41.72;17.83;;;;;;;;;;4920863;29;20075;-72
2022/10/21 04:00:04;;;;;;;44.25;17.63;;;;;;;;;;4935641;29;20048;-72
2022/10/21 04:02:30;;;;;;;47.50;17.92;;;;;;;;;;4920952;29;20127;-72
2022/10/21 04:04:56;;;;;;;44.80;17.83;;;;;;;;;;4921188;29;20044;-72
2022/10/21 04:07:23;;;;;;;42.92;17.05;;;;;;;;;;4921454;29;20495;-72
2022/10/21 04:09:49;;;;;;;36.30;16.85;;;;;;;;;;4920756;29;20523;-73
2022/10/21 04:12:15;;;;;;;43.72;18.52;;;;;;;;;;4921294;29;20048;-72
2022/10/21 04:14:41;;;;;;;40.22;17.48;;;;;;;;;;4920767;29;20036;-73
2022/10/21 04:17:07;;;;;;;42.72;17.98;;;;;;;;;;4921011;29;20575;-73
2022/10/21 04:19:33;;;;;;;40.85;16.60;;;;;;;;;;4920961;29;20047;-73
2022/10/21 04:22:00;;;;;;;33.88;15.85;;;;;;;;;;4919340;29;20048;-73
2022/10/21 04:24:26;;;;;;;30.80;16.20;;;;;;;;;;4920509;29;20040;-72
2022/10/21 04:26:52;;;;;;;32.00;16.08;;;;;;;;;;4920519;29;20040;-73
2022/10/21 04:29:18;;;;;;;43.10;16.42;;;;;;;;;;4920764;29;20044;-73
2022/10/21 04:31:44;;;;;;;36.83;17.02;;;;;;;;;;4921138;29;20107;-72
2022/10/21 04:34:10;;;;;;;35.30;16.27;;;;;;;;;;4920575;29;20571;-72
2022/10/21 04:36:52;;;;;;;32.03;16.20;;;;;;;;;;4920696;29;20051;-72
2022/10/21 04:39:18;;;;;;;40.97;17.63;;;;;;;;;;4920035;29;20040;-73
2022/10/21 04:41:44;;;;;;;43.55;16.85;;;;;;;;;;4920722;29;20048;-73
2022/10/21 04:44:11;;;;;;;44.45;16.65;;;;;;;;;;4920794;29;20032;-73
2022/10/21 04:46:37;;;;;;;38.47;17.30;;;;;;;;;;4920782;29;20048;-73
2022/10/21 04:49:03;;;;;;;38.97;16.67;;;;;;;;;;4920629;29;20044;-73
2022/10/21 04:51:29;;;;;;;45.95;17.33;;;;;;;;;;4920513;29;20055;-73
2022/10/21 04:53:55;;;;;;;39.90;17.17;;;;;;;;;;4920408;29;20518;-72
2022/10/21 04:56:21;;;;;;;47.50;19.55;;;;;;;;;;4920524;29;20036;-73
2022/10/21 04:58:47;;;;;;;40.65;18.40;;;;;;;;;;4920385;29;20047;-73
2022/10/21 05:01:13;;;;;;;49.00;18.08;;;;;;;;;;4920165;29;20051;-73
2022/10/21 05:03:39;;;;;;;42.50;16.30;;;;;;;;;;4920149;29;20074;-73
2022/10/21 05:06:06;;;;;;;45.83;18.08;;;;;;;;;;4934963;29;20036;-73
2022/10/21 05:08:32;;;;;;;51.40;17.92;;;;;;;;;;4921020;29;20044;-73
2022/10/21 05:10:59;;;;;;;43.83;18.50;;;;;;;;;;4919735;29;20503;-73
2022/10/21 05:13:25;;;;;;;40.33;17.42;;;;;;;;;;4920183;29;20048;-73
2022/10/21 05:15:51;;;;;;;38.35;17.63;;;;;;;;;;4920288;29;20039;-73
2022/10/21 05:18:17;;;;;;;44.00;17.83;;;;;;;;;;4920463;29;20484;-72
2022/10/21 05:20:49;;;;;;;42.92;18.40;;;;;;;;;;4920138;29;20491;-72
2022/10/21 05:23:15;;;;;;;48.40;19.67;;;;;;;;;;4920226;29;20048;-73
2022/10/21 05:25:43;;;;;;;46.53;17.88;;;;;;;;;;4919893;29;20047;-72
2022/10/21 05:28:09;;;;;;;43.22;18.00;;;;;;;;;;4920021;29;20503;-72
2022/10/21 05:30:35;;;;;;;45.72;18.23;;;;;;;;;;4919902;29;20044;-72
2022/10/21 05:33:01;;;;;;;37.70;16.73;;;;;;;;;;4920047;29;20071;-72
2022/10/21 05:35:27;;;;;;;44.75;18.38;;;;;;;;;;4927248;29;20047;-72
2022/10/21 05:37:54;;;;;;;45.72;18.05;;;;;;;;;;4929624;29;20044;-73
2022/10/21 05:40:20;;;;;;;46.08;19.88;;;;;;;;;;4918235;29;20483;-73
2022/10/21 05:42:46;;;;;;;44.22;17.95;;;;;;;;;;4919097;29;20091;-73
2022/10/21 05:45:12;;;;;;;47.45;19.30;;;;;;;;;;4918918;29;20047;-73
2022/10/21 05:47:40;;;;;;;43.60;18.55;;;;;;;;;;4919600;29;20115;-73
2022/10/21 05:50:06;;;;;;;49.70;19.30;;;;;;;;;;4919641;29;20047;-72
2022/10/21 05:52:32;;;;;;;50.78;19.05;;;;;;;;;;4919016;29;20081;-73
2022/10/21 05:54:59;;;;;;;48.63;20.20;;;;;;;;;;4918448;29;20131;-72
2022/10/21 05:57:25;;;;;;;39.88;18.63;;;;;;;;;;4918917;29;20059;-73
2022/10/21 05:59:51;;;;;;;50.22;19.77;;;;;;;;;;4918905;29;20098;-73
2022/10/21 06:02:17;;;;;;;51.15;19.23;;;;;;;;;;4916129;29;20150;-73
2022/10/21 06:04:43;;;;;;;52.17;19.75;;;;;;;;;;4917901;29;20048;-73
2022/10/21 06:07:10;;;;;;;46.25;19.80;;;;;;;;;;4917605;29;20047;-73
2022/10/21 06:09:36;;;;;;;40.42;18.73;;;;;;;;;;4917916;29;20040;-73
2022/10/21 06:12:02;;;;;;;40.92;19.05;;;;;;;;;;4918861;29;20440;-73
2022/10/21 06:14:29;;;;;;;47.30;18.60;;;;;;;;;;4917751;29;20063;-72
2022/10/21 06:16:55;;;;;;;48.20;19.35;;;;;;;;;;4918410;29;20517;-74
2022/10/21 06:19:21;;;;;;;38.78;19.10;;;;;;;;;;4915754;29;20565;-74
2022/10/21 06:21:47;;;;;;;49.08;19.35;;;;;;;;;;4917744;29;20518;-74
2022/10/21 06:24:14;;;;;;;38.03;18.33;;;;;;;;;;4917666;29;20044;-74
2022/10/21 06:26:40;;;;;;;42.30;19.25;;;;;;;;;;4919053;29;20512;-74
2022/10/21 06:29:06;;;;;;;46.28;19.95;;;;;;;;;;4916826;29;20070;-74
2022/10/21 06:31:32;;;;;;;55.20;19.90;;;;;;;;;;4918308;29;20047;-74
2022/10/21 06:33:59;;;;;;;52.40;20.88;;;;;;;;;;4918165;29;20044;-74
2022/10/21 06:36:25;;;;;;;43.65;19.00;;;;;;;;;;4918628;29;20048;-74
2022/10/21 06:38:51;;;;;;;47.85;20.05;;;;;;;;;;4917378;29;20044;-74
2022/10/21 06:41:17;;;;;;;44.53;19.98;;;;;;;;;;4917431;29;20511;-74
2022/10/21 06:43:43;;;;;;;39.08;19.70;;;;;;;;;;4917279;29;20119;-74
2022/10/21 06:46:14;;;;;;;33.85;18.33;;;;;;;;;;4917508;29;20039;-75
2022/10/21 06:48:40;;;;;;;45.60;18.88;;;;;;;;;;4918592;29;20043;-74
2022/10/21 06:51:11;;;;;;;37.05;18.10;;;;;;;;;;4916389;29;20134;-74
2022/10/21 06:53:37;;;;;;;35.85;17.10;;;;;;;;;;4918290;29;20055;-74
2022/10/21 06:56:06;;;;;;;41.72;18.05;;;;;;;;;;4917597;29;20070;-74
2022/10/21 06:58:33;;;;;;;39.80;16.77;;;;;;;;;;4911800;29;20050;-74
2022/10/21 07:00:59;;;;;;;32.95;17.25;;;;;;;;;;4914358;29;20048;-74
2022/10/21 07:03:25;;;;;;;37.13;17.20;;;;;;;;;;4917275;29;20068;-74
2022/10/21 07:05:57;;;;;;;37.05;15.65;;;;;;;;;;4917728;29;20127;-74
2022/10/21 07:08:24;;;;;;;30.63;16.42;;;;;;;;;;4917960;29;20102;-75
2022/10/21 07:10:50;;;;;;;31.85;13.75;;;;;;;;;;4913378;29;20578;-74
2022/10/21 07:13:16;;;;;;;28.70;13.65;;;;;;;;;;4916848;29;20066;-74
2022/10/21 07:15:42;;;;;;;28.30;13.55;;;;;;;;;;4917884;29;20040;-74
2022/10/21 07:18:08;;;;;;;27.08;12.60;;;;;;;;;;4918129;29;20055;-74
2022/10/21 07:20:34;;;;;;;28.90;13.40;;;;;;;;;;4917368;29;20119;-73
2022/10/21 07:23:00;;;;;;;28.67;11.05;;;;;;;;;;4917827;29;20083;-74
2022/10/21 07:25:26;;;;;;;34.65;11.65;;;;;;;;;;4917907;29;20040;-74
2022/10/21 07:27:53;;;;;;;22.75;11.65;;;;;;;;;;4917447;29;20048;-74
2022/10/21 07:30:19;;;;;;;35.63;10.38;;;;;;;;;;4917343;29;20052;-74
2022/10/21 07:32:45;;;;;;;25.20;8.70;;;;;;;;;;4917110;29;20369;-74
2022/10/21 07:35:11;;;;;;;25.58;8.30;;;;;;;;;;4916949;29;20032;-74
2022/10/21 07:37:37;;;;;;;23.30;9.18;;;;;;;;;;4916651;29;20044;-73
2022/10/21 07:40:04;;;;;;;22.45;8.75;;;;;;;;;;4917960;29;20199;-74
2022/10/21 07:42:30;;;;;;;24.70;8.48;;;;;;;;;;4915278;29;20044;-73
2022/10/21 07:44:59;;;;;;;21.42;8.77;;;;;;;;;;4916126;29;20052;-73
2022/10/21 07:47:26;;;;;;;25.02;8.98;;;;;;;;;;4918648;29;20063;-73
2022/10/21 07:49:52;;;;;;;17.52;8.50;;;;;;;;;;4917525;29;20058;-73
2022/10/21 07:52:18;;;;;;;21.02;9.82;;;;;;;;;;4918108;29;20103;-73
2022/10/21 07:54:44;;;;;;;23.20;8.65;;;;;;;;;;4917406;29;20068;-74
2022/10/21 07:57:10;;;;;;;25.70;9.27;;;;;;;;;;4920632;29;20570;-73
2022/10/21 07:59:37;;;;;;;25.10;8.55;;;;;;;;;;4921264;29;20048;-74
2022/10/21 08:02:03;;;;;;;21.58;7.93;;;;;;;;;;4929756;29;20074;-73
2022/10/21 08:04:32;;;;;;;23.85;8.48;;;;;;;;;;4924582;29;20098;-73
2022/10/21 08:06:58;;;;;;;20.02;7.70;;;;;;;;;;4921239;29;20418;-73
2022/10/21 08:09:25;;;;;;;20.90;7.43;;;;;;;;;;4920911;29;20048;-74
2022/10/21 08:11:51;;;;;;;22.98;7.75;;;;;;;;;;4921881;29;20056;-73
2022/10/21 08:14:17;;;;;;;21.63;7.40;;;;;;;;;;4919900;29;20126;-73
2022/10/21 08:16:44;;;;;;;25.85;8.02;;;;;;;;;;4920471;29;20102;-73
2022/10/21 08:19:15;;;;;;;23.75;8.05;;;;;;;;;;4920371;29;20087;-73
2022/10/21 08:21:41;;;;;;;23.60;8.60;;;;;;;;;;4919969;29;20135;-73
2022/10/21 08:24:07;;;;;;;25.73;10.45;;;;;;;;;;4920195;29;20074;-73
2022/10/21 08:26:34;;;;;;;25.30;8.27;;;;;;;;;;4920862;29;20452;-73
2022/10/21 08:29:01;;;;;;;22.90;8.05;;;;;;;;;;4920073;29;20043;-73
2022/10/21 08:31:27;;;;;;;25.48;8.02;;;;;;;;;;4921012;29;20047;-73
2022/10/21 08:33:54;;;;;;;26.15;8.98;;;;;;;;;;4919025;29;20047;-74
2022/10/21 08:36:21;;;;;;;27.48;9.52;;;;;;;;;;4920003;29;20040;-74
2022/10/21 08:38:47;;;;;;;26.98;9.27;;;;;;;;;;4919528;29;20040;-74
2022/10/21 08:41:29;;;;;;;23.45;10.10;;;;;;;;;;4920573;29;20416;-73
2022/10/21 08:43:57;;;;;;;23.45;9.25;;;;;;;;;;4920288;29;20123;-73
2022/10/21 08:46:29;;;;;;;31.77;9.85;;;;;;;;;;4920524;29;20048;-73
2022/10/21 08:48:59;;;;;;;20.67;8.63;;;;;;;;;;4919712;29;20068;-73
2022/10/21 08:51:28;;;;;;;28.13;9.40;;;;;;;;;;4919619;29;20154;-73
2022/10/21 08:53:57;;;;;;;32.13;8.90;;;;;;;;;;4919669;29;20044;-73
2022/10/21 08:56:24;;;;;;;23.17;9.80;;;;;;;;;;4919579;29;20050;-73
2022/10/21 08:58:51;;;;;;;24.13;9.38;;;;;;;;;;4919154;29;20104;-73
2022/10/21 09:01:23;;;;;;;23.40;9.65;;;;;;;;;;4937003;29;20185;-73
2022/10/21 09:03:55;;;;;;;24.17;10.10;;;;;;;;;;4918516;29;20444;-73
2022/10/21 09:06:31;;;;;;;20.27;9.77;;;;;;;;;;4919177;29;20050;-74
2022/10/21 09:09:00;;;;;;;25.70;11.13;;;;;;;;;;4918205;29;20054;-73
2022/10/21 09:11:29;;;;;;;32.25;10.73;;;;;;;;;;4919413;29;20098;-73
2022/10/21 09:14:13;;;;;;;29.35;10.48;;;;;;;;;;4919634;29;20044;-73
2022/10/21 09:16:48;;;;;;;27.75;10.65;;;;;;;;;;4920097;29;20082;-73
2022/10/21 09:19:23;;;;;;;26.35;10.60;;;;;;;;;;4919349;29;20048;-73
2022/10/21 09:21:59;;;;;;;30.30;10.70;;;;;;;;;;4919416;29;20076;-73
2022/10/21 09:24:30;;;;;;;31.55;9.75;;;;;;;;;;4919376;29;20103;-73
2022/10/21 09:26:58;;;;;;;27.58;9.73;;;;;;;;;;4919674;29;20118;-73
2022/10/21 09:29:30;;;;;;;33.45;10.27;;;;;;;;;;4917393;29;20048;-73
2022/10/21 09:32:14;;;;;;;29.38;10.27;;;;;;;;;;4919639;29;20044;-73
2022/10/21 09:34:46;;;;;;;28.42;9.98;;;;;;;;;;4919142;29;20075;-73
2022/10/21 09:37:20;;;;;;;24.25;9.70;;;;;;;;;;4918434;29;20039;-73
2022/10/21 09:39:49;;;;;;;28.48;9.93;;;;;;;;;;4917990;29;20407;-75
2022/10/21 09:42:15;;;;;;;28.00;10.02;;;;;;;;;;4918268;29;20040;-78
2022/10/21 09:44:43;;;;;;;29.90;9.73;;;;;;;;;;4918128;29;20083;-79
2022/10/21 09:47:21;;;;;;;34.97;9.95;;;;;;;;;;4919005;29;20044;-79
2022/10/21 09:49:50;;;;;;;26.35;9.88;;;;;;;;;;4918248;29;20123;-79
2022/10/21 09:52:18;;;;;;;26.08;9.70;;;;;;;;;;4933647;29;20071;-78
2022/10/21 09:54:44;;;;;;;28.13;9.57;;;;;;;;;;4918494;29;20052;-78
2022/10/21 09:57:10;;;;;;;24.75;10.00;;;;;;;;;;4918452;29;20123;-77
2022/10/21 09:59:49;;;;;;;32.67;9.88;;;;;;;;;;4910351;29;20052;-78
2022/10/21 10:02:17;;;;;;;29.23;10.02;;;;;;;;;;4917633;29;20048;-77
2022/10/21 10:04:43;;;;;;;24.67;9.80;;;;;;;;;;4918442;29;20123;-78
2022/10/21 10:07:20;;;;;;;23.30;9.25;;;;;;;;;;4917641;29;20119;-77
2022/10/21 10:09:47;;;;;;;26.50;9.38;;;;;;;;;;4917903;29;20067;-78
2022/10/21 10:12:14;;;;;;;29.55;9.23;;;;;;;;;;4917879;29;20531;-76
2022/10/21 10:14:42;;;;;;;27.33;8.75;;;;;;;;;;4917662;29;20036;-76
2022/10/21 10:17:20;;;;;;;28.50;9.55;;;;;;;;;;4918584;29;20040;-77
2022/10/21 10:20:04;;;;;;;18.23;8.25;;;;;;;;;;4916271;29;20075;-78
2022/10/21 10:22:31;;;;;;;23.80;8.02;;;;;;;;;;4916290;29;20119;-76
2022/10/21 10:25:07;;;;;;;26.50;8.73;;;;;;;;;;4933073;29;20487;-78
2022/10/21 10:27:33;;;;;;;24.83;8.40;;;;;;;;;;4951551;29;20102;-77
2022/10/21 10:30:00;;;;;;;25.90;8.85;;;;;;;;;;4915723;29;20047;-76
2022/10/21 10:32:30;;;;;;;28.77;8.32;;;;;;;;;;4917942;29;20095;-77
2022/10/21 10:34:58;;;;;;;22.30;8.32;;;;;;;;;;4917210;29;20052;-80
2022/10/21 10:37:26;;;;;;;21.55;8.13;;;;;;;;;;4916400;29;20040;-78
2022/10/21 10:39:54;;;;;;;19.30;7.53;;;;;;;;;;4916893;29;20056;-77
2022/10/21 10:42:26;;;;;;;26.27;7.93;;;;;;;;;;4917047;29;20040;-78
2022/10/21 10:44:56;;;;;;;26.95;8.07;;;;;;;;;;4916793;29;20043;-80
2022/10/21 10:47:37;;;;;;;25.52;7.57;;;;;;;;;;4917603;29;20140;-74
2022/10/21 10:50:03;;;;;;;23.35;7.32;;;;;;;;;;4917579;29;20442;-72
2022/10/21 10:52:29;;;;;;;25.17;8.00;;;;;;;;;;4917312;29;20499;-73
2022/10/21 10:55:11;;;;;;;19.45;7.25;;;;;;;;;;4916970;29;20036;-73
2022/10/21 10:57:41;;;;;;;27.90;8.32;;;;;;;;;;4916477;29;20507;-73
2022/10/21 11:00:16;;;;;;;28.25;8.68;;;;;;;;;;4917091;29;20048;-74
2022/10/21 11:02:42;;;;;;;19.40;7.45;;;;;;;;;;4916920;29;20043;-74
2022/10/21 11:05:17;;;;;;;26.58;7.30;;;;;;;;;;4916120;29;20051;-75
2022/10/21 11:07:47;;;;;;;22.58;7.47;;;;;;;;;;4917278;29;20072;-74
2022/10/21 11:10:19;;;;;;;25.58;7.93;;;;;;;;;;4916636;29;20122;-74
2022/10/21 11:12:46;;;;;;;17.38;6.88;;;;;;;;;;4915419;29;20052;-75
2022/10/21 11:15:14;;;;;;;20.05;7.00;;;;;;;;;;4919401;29;20073;-75
2022/10/21 11:17:43;;;;;;;20.75;6.60;;;;;;;;;;4919758;29;20419;-75
2022/10/21 11:20:33;;;;;;;25.70;6.90;;;;;;;;;;4916683;29;20044;-75
2022/10/21 11:23:08;;;;;;;21.20;6.47;;;;;;;;;;4916282;29;20052;-76
2022/10/21 11:25:40;;;;;;;20.63;6.50;;;;;;;;;;4917139;29;20040;-76
2022/10/21 11:28:10;;;;;;;18.95;7.65;;;;;;;;;;4916585;29;20054;-75
2022/10/21 11:30:55;;;;;;;22.33;7.18;;;;;;;;;;4916571;29;20044;-76
2022/10/21 11:33:21;;;;;;;20.13;7.22;;;;;;;;;;4920682;29;20035;-76
2022/10/21 11:36:12;;;;;;;25.77;6.13;;;;;;;;;;4919680;29;20054;-77
2022/10/21 11:38:38;;;;;;;16.55;6.75;;;;;;;;;;4921314;29;20058;-76
2022/10/21 11:41:12;;;;;;;22.65;6.72;;;;;;;;;;4919037;29;20082;-76
2022/10/21 11:43:44;;;;;;;17.52;6.35;;;;;;;;;;4920504;29;20048;-76
2022/10/21 11:46:14;;;;;;;18.63;6.35;;;;;;;;;;4920862;29;20044;-75
2022/10/21 11:49:00;;;;;;;27.92;6.35;;;;;;;;;;4919032;29;20115;-74
2022/10/21 11:51:43;;;;;;;17.48;6.68;;;;;;;;;;4916012;29;20075;-78
2022/10/21 11:54:17;;;;;;;20.50;7.28;;;;;;;;;;4920077;29;20075;-78
2022/10/21 11:56:45;;;;;;;23.83;6.85;;;;;;;;;;4924542;29;20039;-78
2022/10/21 11:59:21;;;;;;;22.83;7.07;;;;;;;;;;4922447;29;20040;-78
2022/10/21 12:01:53;;;;;;;23.85;6.85;;;;;;;;;;4921093;29;20258;-77
2022/10/21 12:04:28;;;;;;;21.40;6.35;;;;;;;;;;4920673;29;20040;-77
2022/10/21 12:06:54;;;;;;;24.73;7.22;;;;;;;;;;4920860;29;20048;-77
2022/10/21 12:09:23;;;;;;;14.63;6.68;;;;;;;;;;4920235;29;20498;-78
2022/10/21 12:12:10;;;;;;;18.73;6.53;;;;;;;;;;4920550;29;20036;-76
2022/10/21 12:14:39;;;;;;;27.13;6.60;;;;;;;;;;4920387;29;20487;-77
2022/10/21 12:17:08;;;;;;;19.30;6.97;;;;;;;;;;4922686;29;20067;-77
2022/10/21 12:19:35;;;;;;;18.38;6.22;;;;;;;;;;4939092;29;20040;-77
2022/10/21 12:22:01;;;;;;;15.95;6.43;;;;;;;;;;4928247;29;20495;-76
2022/10/21 12:24:31;;;;;;;17.90;5.63;;;;;;;;;;4919578;29;20089;-76
2022/10/21 12:27:03;;;;;;;25.40;6.57;;;;;;;;;;4919787;29;20032;-77
2022/10/21 12:29:47;;;;;;;20.02;6.13;;;;;;;;;;4917424;29;20048;-77
2022/10/21 12:32:30;;;;;;;19.20;5.90;;;;;;;;;;4918185;29;20411;-77
2022/10/21 12:34:57;;;;;;;16.70;6.38;;;;;;;;;;4928344;29;20103;-77
2022/10/21 12:37:42;;;;;;;21.23;5.68;;;;;;;;;;4927629;29;20480;-77
2022/10/21 12:40:11;;;;;;;18.80;5.88;;;;;;;;;;4919849;29;20068;-76
2022/10/21 12:42:43;;;;;;;17.08;5.57;;;;;;;;;;4931878;29;20048;-78
2022/10/21 12:45:25;;;;;;;14.05;5.10;;;;;;;;;;4922664;29;20066;-76
2022/10/21 12:47:52;;;;;;;19.02;5.70;;;;;;;;;;4919754;29;20096;-77
2022/10/21 12:50:24;;;;;;;20.92;5.50;;;;;;;;;;4918626;29;20443;-77
2022/10/21 12:53:12;;;;;;;13.27;5.18;;;;;;;;;;4918669;29;20048;-78
2022/10/21 12:55:40;;;;;;;16.38;5.30;;;;;;;;;;4919283;29;20056;-76
2022/10/21 12:58:14;;;;;;;14.20;4.72;;;;;;;;;;4918882;29;20044;-78
2022/10/21 13:00:43;;;;;;;17.58;5.60;;;;;;;;;;4918309;29;20051;-79
2022/10/21 13:03:13;;;;;;;18.67;5.82;;;;;;;;;;4919216;29;20044;-77
2022/10/21 13:05:40;;;;;;;13.68;5.03;;;;;;;;;;4917763;29;20039;-77
2022/10/21 13:08:27;;;;;;;16.85;5.28;;;;;;;;;;4919053;29;20048;-76
2022/10/21 13:11:02;;;;;;;19.60;5.85;;;;;;;;;;4917480;29;20052;-77
2022/10/21 13:13:28;;;;;;;15.40;5.53;;;;;;;;;;4916769;29;20111;-79
2022/10/21 13:15:55;;;;;;;18.20;6.03;;;;;;;;;;4918920;29;20040;-78
2022/10/21 13:18:39;;;;;;;20.27;5.63;;;;;;;;;;4931429;29;20055;-78
2022/10/21 13:21:21;;;;;;;18.02;6.18;;;;;;;;;;4938361;29;20044;-76
2022/10/21 13:23:49;;;;;;;23.45;6.03;;;;;;;;;;4929554;29;20044;-76
2022/10/21 13:26:20;;;;;;;20.33;6.47;;;;;;;;;;4918904;29;20082;-76
2022/10/21 13:29:12;;;;;;;20.15;6.00;;;;;;;;;;4915890;29;20440;-77
2022/10/21 13:31:38;;;;;;;21.48;5.88;;;;;;;;;;4903157;29;20221;-75
2022/10/21 13:34:04;;;;;;;13.32;5.63;;;;;;;;;;4917679;29;20537;-76
2022/10/21 13:36:40;;;;;;;25.13;6.30;;;;;;;;;;4917910;29;20048;-76
2022/10/21 13:39:08;;;;;;;21.27;5.40;;;;;;;;;;4917344;29;20060;-76
2022/10/21 13:41:34;;;;;;;18.75;6.30;;;;;;;;;;4918332;29;20064;-75
2022/10/21 13:44:03;;;;;;;21.65;5.50;;;;;;;;;;4918167;29;20112;-76
2022/10/21 13:46:40;;;;;;;28.52;6.53;;;;;;;;;;4919149;29;20040;-76
2022/10/21 13:49:06;;;;;;;19.90;5.90;;;;;;;;;;4918322;29;20399;-77
2022/10/21 13:51:44;;;;;;;16.92;6.43;;;;;;;;;;4918547;29;20525;-75
2022/10/21 13:54:14;;;;;;;14.90;5.30;;;;;;;;;;4919007;29;20051;-76
2022/10/21 13:56:41;;;;;;;17.73;6.00;;;;;;;;;;4918258;29;20093;-75
2022/10/21 13:59:20;;;;;;;16.73;6.45;;;;;;;;;;4919296;29;20084;-75
2022/10/21 14:01:48;;;;;;;21.17;6.00;;;;;;;;;;4918034;29;20060;-75
2022/10/21 14:04:22;;;;;;;19.80;5.57;;;;;;;;;;4918158;29;20038;-76
2022/10/21 14:06:51;;;;;;;22.73;5.57;;;;;;;;;;4917960;29;20071;-75
2022/10/21 14:09:26;;;;;;;12.80;5.53;;;;;;;;;;4917371;29;20092;-75
2022/10/21 14:11:56;;;;;;;19.65;5.60;;;;;;;;;;4919412;29;20103;-76
2022/10/21 14:14:24;;;;;;;20.30;5.60;;;;;;;;;;4918944;29;20040;-77
2022/10/21 14:16:52;;;;;;;21.83;5.30;;;;;;;;;;4917724;29;20048;-77
2022/10/21 14:19:20;;;;;;;22.08;6.10;;;;;;;;;;4917955;29;20190;-78
2022/10/21 14:21:49;;;;;;;23.02;5.13;;;;;;;;;;4918024;29;20135;-78
2022/10/21 14:24:23;;;;;;;19.45;5.35;;;;;;;;;;4917751;29;20327;-77
2022/10/21 14:26:49;;;;;;;18.55;5.35;;;;;;;;;;4915959;29;20048;-76
2022/10/21 14:29:16;;;;;;;17.98;5.50;;;;;;;;;;4915636;29;20516;-75
2022/10/21 14:31:42;;;;;;;19.67;5.60;;;;;;;;;;4916819;29;20482;-76
2022/10/21 14:34:20;;;;;;;20.05;5.70;;;;;;;;;;4918090;29;20206;-77
2022/10/21 14:37:04;;;;;;;24.77;5.68;;;;;;;;;;4917903;29;20059;-75